sensor_id;sensor_type;location;lat;lon;timestamp;P1;durP1;ratioP1;P2;durP2;ratioP2
23181;SDS011;11759;51.282;6.642;2023-10-31T00:02:02;24.60;;;14.45;;
23181;SDS011;11759;51.282;6.642;2023-10-31T00:04:28;29.63;;;15.23;;
23181;SDS011;11759;51.282;6.642;2023-10-31T00:06:55;27.02;;;14.10;;
23181;SDS011;11759;51.282;6.642;2023-10-31T00:09:21;20.95;;;12.48;;
23181;SDS011;11759;51.282;6.642;2023-10-31T00:11:48;22.60;;;13.57;;
23181;SDS011;11759;51.282;6.642;2023-10-31T00:14:15;21.40;;;13.18;;
23181;SDS011;11759;51.282;6.642;2023-10-31T00:16:57;23.25;;;13.88;;
23181;SDS011;11759;51.282;6.642;2023-10-31T00:19:26;19.77;;;12.95;;
23181;SDS011;11759;51.282;6.642;2023-10-31T00:21:53;19.90;;;11.90;;
23181;SDS011;11759;51.282;6.642;2023-10-31T00:24:20;19.38;;;11.50;;
23181;SDS011;11759;51.282;6.642;2023-10-31T00:26:46;16.30;;;10.38;;
23181;SDS011;11759;51.282;6.642;2023-10-31T00:29:13;17.70;;;10.23;;
23181;SDS011;11759;51.282;6.642;2023-10-31T00:31:41;17.90;;;10.70;;
23181;SDS011;11759;51.282;6.642;2023-10-31T00:34:08;22.70;;;11.65;;
23181;SDS011;11759;51.282;6.642;2023-10-31T00:36:35;21.98;;;11.95;;
23181;SDS011;11759;51.282;6.642;2023-10-31T00:39:01;22.05;;;13.20;;
23181;SDS011;11759;51.282;6.642;2023-10-31T00:41:28;19.80;;;12.32;;
23181;SDS011;11759;51.282;6.642;2023-10-31T00:43:55;21.38;;;12.68;;
23181;SDS011;11759;51.282;6.642;2023-10-31T00:46:22;20.42;;;11.65;;
23181;SDS011;11759;51.282;6.642;2023-10-31T00:48:48;17.25;;;11.25;;
23181;SDS011;11759;51.282;6.642;2023-10-31T00:51:15;16.02;;;10.02;;
23181;SDS011;11759;51.282;6.642;2023-10-31T00:53:42;21.10;;;10.18;;
23181;SDS011;11759;51.282;6.642;2023-10-31T00:56:08;17.05;;;11.30;;
23181;SDS011;11759;51.282;6.642;2023-10-31T00:58:35;18.25;;;10.30;;
23181;SDS011;11759;51.282;6.642;2023-10-31T01:01:01;15.57;;;10.45;;
23181;SDS011;11759;51.282;6.642;2023-10-31T01:03:28;18.67;;;9.18;;
23181;SDS011;11759;51.282;6.642;2023-10-31T01:05:55;19.70;;;9.70;;
23181;SDS011;11759;51.282;6.642;2023-10-31T01:08:22;11.38;;;8.02;;
23181;SDS011;11759;51.282;6.642;2023-10-31T01:10:48;12.73;;;7.85;;
23181;SDS011;11759;51.282;6.642;2023-10-31T01:13:15;13.80;;;7.88;;
23181;SDS011;11759;51.282;6.642;2023-10-31T01:15:42;12.00;;;6.90;;
23181;SDS011;11759;51.282;6.642;2023-10-31T01:18:08;11.52;;;6.60;;
23181;SDS011;11759;51.282;6.642;2023-10-31T01:20:35;14.13;;;5.53;;
23181;SDS011;11759;51.282;6.642;2023-10-31T01:23:02;11.27;;;5.70;;
23181;SDS011;11759;51.282;6.642;2023-10-31T01:25:29;9.35;;;5.43;;
23181;SDS011;11759;51.282;6.642;2023-10-31T01:27:55;10.65;;;5.00;;
23181;SDS011;11759;51.282;6.642;2023-10-31T01:30:23;10.70;;;5.40;;
23181;SDS011;11759;51.282;6.642;2023-10-31T01:32:49;14.40;;;5.45;;
23181;SDS011;11759;51.282;6.642;2023-10-31T01:35:16;16.38;;;6.40;;
23181;SDS011;11759;51.282;6.642;2023-10-31T01:37:43;15.18;;;6.47;;
23181;SDS011;11759;51.282;6.642;2023-10-31T01:40:12;18.75;;;7.50;;
23181;SDS011;11759;51.282;6.642;2023-10-31T01:42:39;21.10;;;7.82;;
23181;SDS011;11759;51.282;6.642;2023-10-31T01:45:06;13.65;;;7.85;;
23181;SDS011;11759;51.282;6.642;2023-10-31T01:47:33;15.82;;;9.00;;
23181;SDS011;11759;51.282;6.642;2023-10-31T01:50:00;18.15;;;9.77;;
23181;SDS011;11759;51.282;6.642;2023-10-31T01:52:27;22.15;;;9.52;;
23181;SDS011;11759;51.282;6.642;2023-10-31T01:54:54;20.90;;;10.00;;
23181;SDS011;11759;51.282;6.642;2023-10-31T01:57:21;20.05;;;9.88;;
23181;SDS011;11759;51.282;6.642;2023-10-31T01:59:47;23.27;;;9.98;;
23181;SDS011;11759;51.282;6.642;2023-10-31T02:02:15;21.08;;;10.80;;
23181;SDS011;11759;51.282;6.642;2023-10-31T02:04:41;19.75;;;10.02;;
23181;SDS011;11759;51.282;6.642;2023-10-31T02:07:08;22.60;;;9.88;;
23181;SDS011;11759;51.282;6.642;2023-10-31T02:09:34;22.35;;;10.38;;
23181;SDS011;11759;51.282;6.642;2023-10-31T02:12:01;25.42;;;9.90;;
23181;SDS011;11759;51.282;6.642;2023-10-31T02:14:28;20.52;;;10.30;;
23181;SDS011;11759;51.282;6.642;2023-10-31T02:16:54;25.85;;;10.65;;
23181;SDS011;11759;51.282;6.642;2023-10-31T02:19:21;29.63;;;11.38;;
23181;SDS011;11759;51.282;6.642;2023-10-31T02:21:48;30.35;;;10.75;;
23181;SDS011;11759;51.282;6.642;2023-10-31T02:24:14;19.75;;;10.48;;
23181;SDS011;11759;51.282;6.642;2023-10-31T02:26:41;20.63;;;11.02;;
23181;SDS011;11759;51.282;6.642;2023-10-31T02:29:08;23.35;;;10.82;;
23181;SDS011;11759;51.282;6.642;2023-10-31T02:31:34;19.38;;;10.65;;
23181;SDS011;11759;51.282;6.642;2023-10-31T02:34:02;29.13;;;10.73;;
23181;SDS011;11759;51.282;6.642;2023-10-31T02:36:30;29.17;;;12.23;;
23181;SDS011;11759;51.282;6.642;2023-10-31T02:38:57;36.55;;;13.45;;
23181;SDS011;11759;51.282;6.642;2023-10-31T02:41:24;30.95;;;14.27;;
23181;SDS011;11759;51.282;6.642;2023-10-31T02:43:52;34.80;;;14.30;;
23181;SDS011;11759;51.282;6.642;2023-10-31T02:46:21;32.87;;;14.97;;
23181;SDS011;11759;51.282;6.642;2023-10-31T02:48:48;35.38;;;14.13;;
23181;SDS011;11759;51.282;6.642;2023-10-31T02:51:14;33.85;;;15.07;;
23181;SDS011;11759;51.282;6.642;2023-10-31T02:53:41;38.03;;;13.98;;
23181;SDS011;11759;51.282;6.642;2023-10-31T02:56:07;37.20;;;13.88;;
23181;SDS011;11759;51.282;6.642;2023-10-31T02:58:34;33.58;;;14.80;;
23181;SDS011;11759;51.282;6.642;2023-10-31T03:01:01;29.38;;;13.10;;
23181;SDS011;11759;51.282;6.642;2023-10-31T03:03:27;33.10;;;13.55;;
23181;SDS011;11759;51.282;6.642;2023-10-31T03:05:55;37.05;;;13.00;;
23181;SDS011;11759;51.282;6.642;2023-10-31T03:08:22;40.53;;;14.52;;
23181;SDS011;11759;51.282;6.642;2023-10-31T03:10:50;28.60;;;12.38;;
23181;SDS011;11759;51.282;6.642;2023-10-31T03:13:19;36.42;;;13.85;;
23181;SDS011;11759;51.282;6.642;2023-10-31T03:15:46;37.00;;;13.10;;
23181;SDS011;11759;51.282;6.642;2023-10-31T03:18:13;31.60;;;13.25;;
23181;SDS011;11759;51.282;6.642;2023-10-31T03:20:43;39.65;;;15.23;;
23181;SDS011;11759;51.282;6.642;2023-10-31T03:23:10;37.00;;;13.85;;
23181;SDS011;11759;51.282;6.642;2023-10-31T03:25:37;43.25;;;14.55;;
23181;SDS011;11759;51.282;6.642;2023-10-31T03:28:04;34.95;;;14.40;;
23181;SDS011;11759;51.282;6.642;2023-10-31T03:30:33;41.55;;;14.68;;
23181;SDS011;11759;51.282;6.642;2023-10-31T03:32:59;38.80;;;15.45;;
23181;SDS011;11759;51.282;6.642;2023-10-31T03:35:27;33.08;;;13.68;;
23181;SDS011;11759;51.282;6.642;2023-10-31T03:37:54;34.92;;;13.75;;
23181;SDS011;11759;51.282;6.642;2023-10-31T03:40:20;37.65;;;13.30;;
23181;SDS011;11759;51.282;6.642;2023-10-31T03:42:48;41.50;;;14.35;;
23181;SDS011;11759;51.282;6.642;2023-10-31T03:45:14;32.55;;;12.57;;
23181;SDS011;11759;51.282;6.642;2023-10-31T03:47:41;35.38;;;13.75;;
23181;SDS011;11759;51.282;6.642;2023-10-31T03:50:08;29.08;;;12.02;;
23181;SDS011;11759;51.282;6.642;2023-10-31T03:52:35;38.35;;;13.38;;
23181;SDS011;11759;51.282;6.642;2023-10-31T03:55:01;29.42;;;12.30;;
23181;SDS011;11759;51.282;6.642;2023-10-31T03:57:28;33.80;;;13.07;;
23181;SDS011;11759;51.282;6.642;2023-10-31T03:59:55;28.50;;;12.02;;
23181;SDS011;11759;51.282;6.642;2023-10-31T04:02:21;32.13;;;12.75;;
23181;SDS011;11759;51.282;6.642;2023-10-31T04:04:48;25.17;;;11.82;;
23181;SDS011;11759;51.282;6.642;2023-10-31T04:07:15;34.85;;;12.82;;
23181;SDS011;11759;51.282;6.642;2023-10-31T04:09:41;29.40;;;12.88;;
23181;SDS011;11759;51.282;6.642;2023-10-31T04:12:09;33.67;;;13.15;;
23181;SDS011;11759;51.282;6.642;2023-10-31T04:14:36;27.90;;;13.13;;
23181;SDS011;11759;51.282;6.642;2023-10-31T04:17:04;25.77;;;12.38;;
23181;SDS011;11759;51.282;6.642;2023-10-31T04:19:31;33.33;;;13.00;;
23181;SDS011;11759;51.282;6.642;2023-10-31T04:21:57;28.40;;;12.98;;
23181;SDS011;11759;51.282;6.642;2023-10-31T04:24:24;22.80;;;12.20;;
23181;SDS011;11759;51.282;6.642;2023-10-31T04:26:51;28.17;;;11.77;;
23181;SDS011;11759;51.282;6.642;2023-10-31T04:29:17;24.88;;;12.32;;
23181;SDS011;11759;51.282;6.642;2023-10-31T04:31:44;29.70;;;13.57;;
23181;SDS011;11759;51.282;6.642;2023-10-31T04:34:11;26.08;;;13.00;;
23181;SDS011;11759;51.282;6.642;2023-10-31T04:36:37;25.65;;;12.93;;
23181;SDS011;11759;51.282;6.642;2023-10-31T04:39:04;25.50;;;11.93;;
23181;SDS011;11759;51.282;6.642;2023-10-31T04:41:30;31.42;;;12.27;;
23181;SDS011;11759;51.282;6.642;2023-10-31T04:43:57;27.48;;;12.57;;
23181;SDS011;11759;51.282;6.642;2023-10-31T04:46:27;31.90;;;12.98;;
23181;SDS011;11759;51.282;6.642;2023-10-31T04:48:53;27.20;;;12.98;;
23181;SDS011;11759;51.282;6.642;2023-10-31T04:51:20;29.35;;;11.70;;
23181;SDS011;11759;51.282;6.642;2023-10-31T04:53:47;25.85;;;12.20;;
23181;SDS011;11759;51.282;6.642;2023-10-31T04:56:14;30.13;;;12.00;;
23181;SDS011;11759;51.282;6.642;2023-10-31T04:58:41;29.27;;;12.57;;
23181;SDS011;11759;51.282;6.642;2023-10-31T05:01:12;26.23;;;12.50;;
23181;SDS011;11759;51.282;6.642;2023-10-31T05:03:39;23.42;;;12.40;;
23181;SDS011;11759;51.282;6.642;2023-10-31T05:06:06;21.05;;;11.82;;
23181;SDS011;11759;51.282;6.642;2023-10-31T05:08:32;27.80;;;12.45;;
23181;SDS011;11759;51.282;6.642;2023-10-31T05:10:59;29.67;;;12.27;;
23181;SDS011;11759;51.282;6.642;2023-10-31T05:13:26;24.60;;;12.52;;
23181;SDS011;11759;51.282;6.642;2023-10-31T05:15:52;24.55;;;12.38;;
23181;SDS011;11759;51.282;6.642;2023-10-31T05:18:19;25.27;;;12.10;;
23181;SDS011;11759;51.282;6.642;2023-10-31T05:20:46;28.13;;;12.48;;
23181;SDS011;11759;51.282;6.642;2023-10-31T05:23:13;25.67;;;12.57;;
23181;SDS011;11759;51.282;6.642;2023-10-31T05:25:40;30.77;;;13.68;;
23181;SDS011;11759;51.282;6.642;2023-10-31T05:28:06;26.48;;;12.60;;
23181;SDS011;11759;51.282;6.642;2023-10-31T05:30:33;24.17;;;12.40;;
23181;SDS011;11759;51.282;6.642;2023-10-31T05:32:59;28.52;;;13.25;;
23181;SDS011;11759;51.282;6.642;2023-10-31T05:35:26;27.70;;;12.90;;
23181;SDS011;11759;51.282;6.642;2023-10-31T05:37:53;27.80;;;13.57;;
23181;SDS011;11759;51.282;6.642;2023-10-31T05:40:19;30.83;;;13.65;;
23181;SDS011;11759;51.282;6.642;2023-10-31T05:42:48;25.50;;;13.65;;
23181;SDS011;11759;51.282;6.642;2023-10-31T05:45:15;27.10;;;13.93;;
23181;SDS011;11759;51.282;6.642;2023-10-31T05:47:42;28.38;;;13.20;;
23181;SDS011;11759;51.282;6.642;2023-10-31T05:50:08;33.80;;;13.77;;
23181;SDS011;11759;51.282;6.642;2023-10-31T05:52:35;25.92;;;12.80;;
23181;SDS011;11759;51.282;6.642;2023-10-31T05:55:02;23.08;;;11.35;;
23181;SDS011;11759;51.282;6.642;2023-10-31T05:57:29;23.40;;;11.35;;
23181;SDS011;11759;51.282;6.642;2023-10-31T05:59:56;24.42;;;11.07;;
23181;SDS011;11759;51.282;6.642;2023-10-31T06:02:22;24.85;;;11.40;;
23181;SDS011;11759;51.282;6.642;2023-10-31T06:04:49;25.55;;;10.35;;
23181;SDS011;11759;51.282;6.642;2023-10-31T06:07:16;26.33;;;11.32;;
23181;SDS011;11759;51.282;6.642;2023-10-31T06:09:42;22.55;;;9.85;;
23181;SDS011;11759;51.282;6.642;2023-10-31T06:12:09;23.40;;;11.27;;
23181;SDS011;11759;51.282;6.642;2023-10-31T06:14:36;19.85;;;10.77;;
23181;SDS011;11759;51.282;6.642;2023-10-31T06:17:03;20.48;;;10.63;;
23181;SDS011;11759;51.282;6.642;2023-10-31T06:19:33;24.10;;;11.20;;
23181;SDS011;11759;51.282;6.642;2023-10-31T06:22:01;27.60;;;13.38;;
23181;SDS011;11759;51.282;6.642;2023-10-31T06:24:28;28.75;;;12.70;;
23181;SDS011;11759;51.282;6.642;2023-10-31T06:26:54;29.35;;;12.88;;
23181;SDS011;11759;51.282;6.642;2023-10-31T06:29:21;33.03;;;13.80;;
23181;SDS011;11759;51.282;6.642;2023-10-31T06:32:07;34.45;;;14.93;;
23181;SDS011;11759;51.282;6.642;2023-10-31T06:34:34;32.10;;;14.77;;
23181;SDS011;11759;51.282;6.642;2023-10-31T06:37:01;33.30;;;14.68;;
23181;SDS011;11759;51.282;6.642;2023-10-31T06:39:27;35.35;;;16.65;;
23181;SDS011;11759;51.282;6.642;2023-10-31T06:41:54;36.20;;;16.17;;
23181;SDS011;11759;51.282;6.642;2023-10-31T06:44:22;42.15;;;18.02;;
23181;SDS011;11759;51.282;6.642;2023-10-31T06:46:48;41.92;;;18.60;;
23181;SDS011;11759;51.282;6.642;2023-10-31T06:49:15;39.28;;;17.40;;
23181;SDS011;11759;51.282;6.642;2023-10-31T06:51:42;38.05;;;18.00;;
23181;SDS011;11759;51.282;6.642;2023-10-31T06:54:09;38.80;;;16.90;;
23181;SDS011;11759;51.282;6.642;2023-10-31T06:56:35;44.55;;;16.98;;
23181;SDS011;11759;51.282;6.642;2023-10-31T06:59:02;36.80;;;16.98;;
23181;SDS011;11759;51.282;6.642;2023-10-31T07:01:29;43.50;;;18.23;;
23181;SDS011;11759;51.282;6.642;2023-10-31T07:03:55;40.00;;;17.92;;
23181;SDS011;11759;51.282;6.642;2023-10-31T07:06:22;42.75;;;19.70;;
23181;SDS011;11759;51.282;6.642;2023-10-31T07:08:49;42.58;;;19.23;;
23181;SDS011;11759;51.282;6.642;2023-10-31T07:11:15;41.47;;;19.58;;
23181;SDS011;11759;51.282;6.642;2023-10-31T07:13:42;39.20;;;18.48;;
23181;SDS011;11759;51.282;6.642;2023-10-31T07:16:09;42.00;;;17.95;;
23181;SDS011;11759;51.282;6.642;2023-10-31T07:18:35;44.53;;;18.20;;
23181;SDS011;11759;51.282;6.642;2023-10-31T07:21:02;41.47;;;16.85;;
23181;SDS011;11759;51.282;6.642;2023-10-31T07:23:29;43.15;;;18.90;;
23181;SDS011;11759;51.282;6.642;2023-10-31T07:25:56;42.33;;;17.67;;
23181;SDS011;11759;51.282;6.642;2023-10-31T07:28:22;36.45;;;16.50;;
23181;SDS011;11759;51.282;6.642;2023-10-31T07:30:49;36.90;;;16.80;;
23181;SDS011;11759;51.282;6.642;2023-10-31T07:33:16;38.00;;;16.42;;
23181;SDS011;11759;51.282;6.642;2023-10-31T07:35:43;37.88;;;16.92;;
23181;SDS011;11759;51.282;6.642;2023-10-31T07:38:10;34.13;;;15.45;;
23181;SDS011;11759;51.282;6.642;2023-10-31T07:40:36;34.50;;;16.63;;
23181;SDS011;11759;51.282;6.642;2023-10-31T07:43:03;39.70;;;15.70;;
23181;SDS011;11759;51.282;6.642;2023-10-31T07:45:30;33.47;;;15.75;;
23181;SDS011;11759;51.282;6.642;2023-10-31T07:47:56;39.53;;;16.30;;
23181;SDS011;11759;51.282;6.642;2023-10-31T07:50:23;30.60;;;15.20;;
23181;SDS011;11759;51.282;6.642;2023-10-31T07:52:49;32.53;;;15.20;;
23181;SDS011;11759;51.282;6.642;2023-10-31T07:55:16;35.15;;;14.90;;
23181;SDS011;11759;51.282;6.642;2023-10-31T07:57:42;34.70;;;14.07;;
23181;SDS011;11759;51.282;6.642;2023-10-31T08:00:10;29.60;;;14.88;;
23181;SDS011;11759;51.282;6.642;2023-10-31T08:02:40;33.55;;;14.60;;
23181;SDS011;11759;51.282;6.642;2023-10-31T08:05:07;27.58;;;13.55;;
23181;SDS011;11759;51.282;6.642;2023-10-31T08:07:33;29.10;;;13.98;;
23181;SDS011;11759;51.282;6.642;2023-10-31T08:10:00;27.00;;;13.18;;
23181;SDS011;11759;51.282;6.642;2023-10-31T08:12:27;25.98;;;13.18;;
23181;SDS011;11759;51.282;6.642;2023-10-31T08:14:53;27.13;;;13.73;;
23181;SDS011;11759;51.282;6.642;2023-10-31T08:17:20;24.77;;;12.55;;
23181;SDS011;11759;51.282;6.642;2023-10-31T08:19:47;28.40;;;13.38;;
23181;SDS011;11759;51.282;6.642;2023-10-31T08:22:14;26.27;;;11.98;;
23181;SDS011;11759;51.282;6.642;2023-10-31T08:24:40;27.10;;;13.38;;
23181;SDS011;11759;51.282;6.642;2023-10-31T08:27:07;28.52;;;13.38;;
23181;SDS011;11759;51.282;6.642;2023-10-31T08:29:34;22.30;;;12.23;;
23181;SDS011;11759;51.282;6.642;2023-10-31T08:32:00;25.70;;;12.60;;
23181;SDS011;11759;51.282;6.642;2023-10-31T08:34:27;22.15;;;12.25;;
23181;SDS011;11759;51.282;6.642;2023-10-31T08:36:53;21.58;;;12.57;;
23181;SDS011;11759;51.282;6.642;2023-10-31T08:39:22;25.02;;;11.73;;
23181;SDS011;11759;51.282;6.642;2023-10-31T08:41:55;25.15;;;11.95;;
23181;SDS011;11759;51.282;6.642;2023-10-31T08:44:23;24.02;;;11.82;;
23181;SDS011;11759;51.282;6.642;2023-10-31T08:46:49;27.90;;;12.70;;
23181;SDS011;11759;51.282;6.642;2023-10-31T08:49:16;37.00;;;11.45;;
23181;SDS011;11759;51.282;6.642;2023-10-31T08:51:43;23.88;;;11.70;;
23181;SDS011;11759;51.282;6.642;2023-10-31T08:54:10;27.65;;;11.82;;
23181;SDS011;11759;51.282;6.642;2023-10-31T08:56:37;19.92;;;10.95;;
23181;SDS011;11759;51.282;6.642;2023-10-31T08:59:04;20.52;;;11.45;;
23181;SDS011;11759;51.282;6.642;2023-10-31T09:01:31;18.80;;;11.13;;
23181;SDS011;11759;51.282;6.642;2023-10-31T09:03:59;21.85;;;10.77;;
23181;SDS011;11759;51.282;6.642;2023-10-31T09:06:26;23.83;;;11.93;;
23181;SDS011;11759;51.282;6.642;2023-10-31T09:08:52;24.58;;;12.90;;
23181;SDS011;11759;51.282;6.642;2023-10-31T09:11:19;27.77;;;12.20;;
23181;SDS011;11759;51.282;6.642;2023-10-31T09:13:46;23.73;;;12.85;;
23181;SDS011;11759;51.282;6.642;2023-10-31T09:16:12;22.13;;;12.27;;
23181;SDS011;11759;51.282;6.642;2023-10-31T09:18:40;22.95;;;12.15;;
23181;SDS011;11759;51.282;6.642;2023-10-31T09:21:07;23.48;;;12.13;;
23181;SDS011;11759;51.282;6.642;2023-10-31T09:23:34;20.08;;;12.25;;
23181;SDS011;11759;51.282;6.642;2023-10-31T09:26:00;16.25;;;10.70;;
23181;SDS011;11759;51.282;6.642;2023-10-31T09:28:27;19.92;;;10.75;;
23181;SDS011;11759;51.282;6.642;2023-10-31T09:30:54;21.55;;;11.35;;
23181;SDS011;11759;51.282;6.642;2023-10-31T09:33:21;17.80;;;9.95;;
23181;SDS011;11759;51.282;6.642;2023-10-31T09:35:47;19.58;;;9.98;;
23181;SDS011;11759;51.282;6.642;2023-10-31T09:38:14;18.17;;;10.05;;
23181;SDS011;11759;51.282;6.642;2023-10-31T09:40:41;16.27;;;9.45;;
23181;SDS011;11759;51.282;6.642;2023-10-31T09:43:07;16.08;;;9.35;;
23181;SDS011;11759;51.282;6.642;2023-10-31T09:45:34;16.02;;;9.13;;
23181;SDS011;11759;51.282;6.642;2023-10-31T09:48:01;15.38;;;9.98;;
23181;SDS011;11759;51.282;6.642;2023-10-31T09:50:29;15.18;;;9.52;;
23181;SDS011;11759;51.282;6.642;2023-10-31T09:52:56;19.45;;;9.32;;
23181;SDS011;11759;51.282;6.642;2023-10-31T09:55:23;15.57;;;9.60;;
23181;SDS011;11759;51.282;6.642;2023-10-31T09:57:50;16.98;;;9.13;;
23181;SDS011;11759;51.282;6.642;2023-10-31T10:00:17;17.30;;;8.68;;
23181;SDS011;11759;51.282;6.642;2023-10-31T10:02:44;17.25;;;8.15;;
23181;SDS011;11759;51.282;6.642;2023-10-31T10:05:11;20.55;;;8.25;;
23181;SDS011;11759;51.282;6.642;2023-10-31T10:07:41;14.52;;;7.97;;
23181;SDS011;11759;51.282;6.642;2023-10-31T10:10:10;17.70;;;8.05;;
23181;SDS011;11759;51.282;6.642;2023-10-31T10:12:40;14.70;;;6.90;;
23181;SDS011;11759;51.282;6.642;2023-10-31T10:15:08;13.88;;;7.10;;
23181;SDS011;11759;51.282;6.642;2023-10-31T10:17:36;15.25;;;7.25;;
23181;SDS011;11759;51.282;6.642;2023-10-31T10:25:07;11.95;;;5.85;;
23181;SDS011;11759;51.282;6.642;2023-10-31T10:27:38;9.20;;;5.40;;
23181;SDS011;11759;51.282;6.642;2023-10-31T10:30:05;9.07;;;5.47;;
23181;SDS011;11759;51.282;6.642;2023-10-31T10:32:31;18.02;;;5.65;;
23181;SDS011;11759;51.282;6.642;2023-10-31T10:34:58;14.13;;;5.82;;
23181;SDS011;11759;51.282;6.642;2023-10-31T10:37:25;15.40;;;5.00;;
23181;SDS011;11759;51.282;6.642;2023-10-31T10:39:53;13.00;;;4.18;;
23181;SDS011;11759;51.282;6.642;2023-10-31T10:42:27;6.10;;;4.18;;
23181;SDS011;11759;51.282;6.642;2023-10-31T10:45:01;8.05;;;3.60;;
23181;SDS011;11759;51.282;6.642;2023-10-31T10:47:31;8.32;;;3.63;;
23181;SDS011;11759;51.282;6.642;2023-10-31T10:49:59;8.98;;;3.50;;
23181;SDS011;11759;51.282;6.642;2023-10-31T10:55:13;11.95;;;3.50;;
23181;SDS011;11759;51.282;6.642;2023-10-31T10:58:03;8.38;;;2.63;;
23181;SDS011;11759;51.282;6.642;2023-10-31T11:00:31;5.53;;;2.83;;
23181;SDS011;11759;51.282;6.642;2023-10-31T11:02:58;8.68;;;3.28;;
23181;SDS011;11759;51.282;6.642;2023-10-31T11:05:25;5.10;;;2.53;;
23181;SDS011;11759;51.282;6.642;2023-10-31T11:07:53;7.10;;;2.50;;
23181;SDS011;11759;51.282;6.642;2023-10-31T11:10:22;7.88;;;2.55;;
23181;SDS011;11759;51.282;6.642;2023-10-31T11:12:49;5.68;;;2.47;;
23181;SDS011;11759;51.282;6.642;2023-10-31T11:15:17;5.50;;;2.33;;
23181;SDS011;11759;51.282;6.642;2023-10-31T11:17:44;5.45;;;2.10;;
23181;SDS011;11759;51.282;6.642;2023-10-31T11:20:13;6.75;;;1.92;;
23181;SDS011;11759;51.282;6.642;2023-10-31T11:22:41;3.63;;;2.13;;
23181;SDS011;11759;51.282;6.642;2023-10-31T11:25:12;8.52;;;2.45;;
23181;SDS011;11759;51.282;6.642;2023-10-31T11:27:51;5.43;;;1.52;;
23181;SDS011;11759;51.282;6.642;2023-10-31T11:30:22;4.97;;;1.80;;
23181;SDS011;11759;51.282;6.642;2023-10-31T11:33:00;3.85;;;1.88;;
23181;SDS011;11759;51.282;6.642;2023-10-31T11:35:31;4.40;;;1.60;;
23181;SDS011;11759;51.282;6.642;2023-10-31T11:38:02;5.65;;;1.75;;
23181;SDS011;11759;51.282;6.642;2023-10-31T11:40:36;5.22;;;1.70;;
23181;SDS011;11759;51.282;6.642;2023-10-31T11:43:23;4.55;;;1.70;;
23181;SDS011;11759;51.282;6.642;2023-10-31T11:45:50;5.80;;;1.80;;
23181;SDS011;11759;51.282;6.642;2023-10-31T11:48:16;2.25;;;1.73;;
23181;SDS011;11759;51.282;6.642;2023-10-31T11:50:43;5.68;;;1.83;;
23181;SDS011;11759;51.282;6.642;2023-10-31T11:53:10;2.58;;;1.77;;
23181;SDS011;11759;51.282;6.642;2023-10-31T11:58:12;5.43;;;1.77;;
23181;SDS011;11759;51.282;6.642;2023-10-31T12:00:49;5.03;;;1.80;;
23181;SDS011;11759;51.282;6.642;2023-10-31T12:03:17;4.35;;;1.92;;
23181;SDS011;11759;51.282;6.642;2023-10-31T12:05:51;4.53;;;2.03;;
23181;SDS011;11759;51.282;6.642;2023-10-31T12:11:43;2.58;;;1.60;;
23181;SDS011;11759;51.282;6.642;2023-10-31T12:13:59;5.78;;;1.70;;
23181;SDS011;11759;51.282;6.642;2023-10-31T12:16:28;5.15;;;2.08;;
23181;SDS011;11759;51.282;6.642;2023-10-31T12:18:57;3.13;;;1.73;;
23181;SDS011;11759;51.282;6.642;2023-10-31T12:21:37;2.38;;;1.60;;
23181;SDS011;11759;51.282;6.642;2023-10-31T12:24:14;3.85;;;1.52;;
23181;SDS011;11759;51.282;6.642;2023-10-31T12:26:41;3.10;;;1.55;;
23181;SDS011;11759;51.282;6.642;2023-10-31T12:31:45;4.55;;;1.50;;
23181;SDS011;11759;51.282;6.642;2023-10-31T12:34:13;3.45;;;1.80;;
23181;SDS011;11759;51.282;6.642;2023-10-31T12:36:41;3.15;;;1.77;;
23181;SDS011;11759;51.282;6.642;2023-10-31T12:39:09;4.68;;;2.33;;
23181;SDS011;11759;51.282;6.642;2023-10-31T12:41:37;4.65;;;1.80;;
23181;SDS011;11759;51.282;6.642;2023-10-31T12:44:04;3.53;;;1.80;;
23181;SDS011;11759;51.282;6.642;2023-10-31T12:46:32;5.32;;;2.00;;
23181;SDS011;11759;51.282;6.642;2023-10-31T12:48:59;6.68;;;2.00;;
23181;SDS011;11759;51.282;6.642;2023-10-31T12:51:25;8.23;;;2.50;;
23181;SDS011;11759;51.282;6.642;2023-10-31T12:53:52;4.57;;;2.80;;
23181;SDS011;11759;51.282;6.642;2023-10-31T12:56:41;6.28;;;2.50;;
23181;SDS011;11759;51.282;6.642;2023-10-31T12:59:08;3.10;;;2.30;;
23181;SDS011;11759;51.282;6.642;2023-10-31T13:01:36;3.92;;;2.50;;
23181;SDS011;11759;51.282;6.642;2023-10-31T13:04:03;7.00;;;2.63;;
23181;SDS011;11759;51.282;6.642;2023-10-31T13:06:30;4.35;;;2.83;;
23181;SDS011;11759;51.282;6.642;2023-10-31T13:08:57;7.63;;;2.47;;
23181;SDS011;11759;51.282;6.642;2023-10-31T13:11:28;4.68;;;2.50;;
23181;SDS011;11759;51.282;6.642;2023-10-31T13:13:56;4.03;;;2.47;;
23181;SDS011;11759;51.282;6.642;2023-10-31T13:16:22;5.68;;;2.70;;
23181;SDS011;11759;51.282;6.642;2023-10-31T13:18:49;4.28;;;2.40;;
23181;SDS011;11759;51.282;6.642;2023-10-31T13:21:16;5.10;;;2.25;;
23181;SDS011;11759;51.282;6.642;2023-10-31T13:23:44;5.00;;;2.30;;
23181;SDS011;11759;51.282;6.642;2023-10-31T13:26:12;7.18;;;3.05;;
23181;SDS011;11759;51.282;6.642;2023-10-31T13:28:38;6.07;;;2.60;;
23181;SDS011;11759;51.282;6.642;2023-10-31T13:31:06;5.40;;;2.38;;
23181;SDS011;11759;51.282;6.642;2023-10-31T13:33:33;3.92;;;2.60;;
23181;SDS011;11759;51.282;6.642;2023-10-31T13:36:00;6.25;;;2.38;;
23181;SDS011;11759;51.282;6.642;2023-10-31T13:38:26;5.40;;;2.20;;
23181;SDS011;11759;51.282;6.642;2023-10-31T13:40:53;3.67;;;1.98;;
23181;SDS011;11759;51.282;6.642;2023-10-31T13:43:20;8.93;;;2.38;;
23181;SDS011;11759;51.282;6.642;2023-10-31T13:45:46;3.70;;;2.28;;
23181;SDS011;11759;51.282;6.642;2023-10-31T13:48:13;8.38;;;2.00;;
23181;SDS011;11759;51.282;6.642;2023-10-31T13:50:40;4.22;;;1.90;;
23181;SDS011;11759;51.282;6.642;2023-10-31T13:53:08;4.43;;;1.75;;
23181;SDS011;11759;51.282;6.642;2023-10-31T13:55:34;3.83;;;1.80;;
23181;SDS011;11759;51.282;6.642;2023-10-31T13:58:01;4.18;;;1.90;;
23181;SDS011;11759;51.282;6.642;2023-10-31T14:00:27;3.38;;;1.55;;
23181;SDS011;11759;51.282;6.642;2023-10-31T14:02:54;5.15;;;1.77;;
23181;SDS011;11759;51.282;6.642;2023-10-31T14:05:21;4.30;;;1.50;;
23181;SDS011;11759;51.282;6.642;2023-10-31T14:07:48;3.55;;;1.30;;
23181;SDS011;11759;51.282;6.642;2023-10-31T14:10:16;6.57;;;1.30;;
23181;SDS011;11759;51.282;6.642;2023-10-31T14:12:46;9.88;;;2.58;;
23181;SDS011;11759;51.282;6.642;2023-10-31T14:15:13;4.50;;;1.80;;
23181;SDS011;11759;51.282;6.642;2023-10-31T14:17:40;6.43;;;1.42;;
23181;SDS011;11759;51.282;6.642;2023-10-31T14:20:07;4.80;;;1.40;;
23181;SDS011;11759;51.282;6.642;2023-10-31T14:22:34;5.70;;;1.30;;
23181;SDS011;11759;51.282;6.642;2023-10-31T14:25:00;6.45;;;1.50;;
23181;SDS011;11759;51.282;6.642;2023-10-31T14:27:30;4.03;;;1.52;;
23181;SDS011;11759;51.282;6.642;2023-10-31T14:29:57;4.32;;;1.35;;
23181;SDS011;11759;51.282;6.642;2023-10-31T14:32:24;4.57;;;1.13;;
23181;SDS011;11759;51.282;6.642;2023-10-31T14:34:50;5.40;;;1.70;;
23181;SDS011;11759;51.282;6.642;2023-10-31T14:37:17;10.88;;;1.35;;
23181;SDS011;11759;51.282;6.642;2023-10-31T14:39:44;6.07;;;1.80;;
23181;SDS011;11759;51.282;6.642;2023-10-31T14:42:11;6.00;;;1.50;;
23181;SDS011;11759;51.282;6.642;2023-10-31T14:44:37;4.43;;;1.50;;
23181;SDS011;11759;51.282;6.642;2023-10-31T14:47:04;6.15;;;1.65;;
23181;SDS011;11759;51.282;6.642;2023-10-31T14:49:31;3.58;;;1.20;;